createdAt,value
2023-05-04T00:01:36.018Z,1.12
2023-05-04T00:06:43.245Z,1.26
2023-05-04T00:11:50.504Z,1.21
2023-05-04T00:16:57.794Z,1.32
2023-05-04T00:22:05.268Z,1.35
2023-05-04T00:27:12.443Z,1.19
2023-05-04T00:32:19.813Z,1.28
2023-05-04T00:37:27.102Z,1.11
2023-05-04T00:42:34.459Z,1.19
2023-05-04T00:47:41.779Z,1.16
2023-05-04T00:52:49.274Z,1.28
2023-05-04T00:57:56.463Z,1.25
2023-05-04T01:03:03.957Z,1.22
2023-05-04T01:08:11.087Z,1.16
2023-05-04T01:13:18.437Z,1.11
2023-05-04T01:18:25.625Z,1.09
2023-05-04T01:23:32.946Z,1.14
2023-05-04T01:28:40.230Z,1.14
2023-05-04T01:33:47.661Z,1.30
2023-05-04T01:38:54.858Z,1.18
2023-05-04T01:44:02.237Z,1.31
2023-05-04T01:49:09.434Z,1.24
2023-05-04T01:54:16.755Z,1.49
2023-05-04T01:59:24.006Z,1.30
2023-05-04T02:04:31.436Z,1.15
2023-05-04T02:09:38.628Z,1.31
2023-05-04T02:14:46.031Z,1.05
2023-05-04T02:19:53.289Z,1.30
2023-05-04T02:25:00.726Z,1.20
2023-05-04T02:30:07.955Z,1.15
2023-05-04T02:35:15.413Z,1.25
2023-05-04T02:40:22.674Z,1.09
2023-05-04T02:45:29.981Z,1.17
2023-05-04T02:50:37.233Z,1.14
2023-05-04T02:55:44.616Z,1.15
2023-05-04T03:00:51.988Z,1.17
2023-05-04T03:05:59.400Z,1.10
2023-05-04T03:11:06.657Z,1.48
2023-05-04T03:16:14.105Z,1.28
2023-05-04T03:21:21.248Z,1.18
2023-05-04T03:26:29.008Z,1.29
2023-05-04T03:31:36.223Z,1.16
2023-05-04T03:36:43.674Z,1.08
2023-05-04T03:41:50.864Z,1.21
2023-05-04T03:46:58.426Z,1.09
2023-05-04T03:52:05.657Z,1.19
2023-05-04T03:57:13.193Z,1.27
2023-05-04T04:02:20.446Z,1.35
2023-05-04T04:07:27.747Z,1.23
2023-05-04T04:12:35.083Z,1.35
2023-05-04T04:17:42.408Z,1.22
2023-05-04T04:22:49.655Z,1.34
2023-05-04T04:27:57.084Z,1.70
2023-05-04T04:33:04.373Z,1.21
2023-05-04T04:38:11.694Z,1.23
2023-05-04T04:43:18.888Z,1.24
2023-05-04T04:48:26.215Z,1.19
2023-05-04T04:53:33.454Z,1.13
2023-05-04T04:58:40.888Z,1.18
2023-05-04T05:03:48.131Z,1.23
2023-05-04T05:14:01.045Z,1.24
2023-05-04T05:19:09.444Z,1.26
2023-05-04T05:24:19.404Z,1.22
2023-05-04T05:29:26.767Z,1.55
2023-05-04T05:34:34.023Z,1.18
2023-05-04T05:39:41.596Z,1.33
2023-05-04T05:44:48.891Z,1.33
2023-05-04T05:49:56.214Z,1.16
2023-05-04T05:55:03.547Z,1.38
2023-05-04T06:00:10.961Z,1.43
2023-05-04T06:05:18.108Z,1.28
2023-05-04T06:10:25.323Z,1.29
2023-05-04T06:15:32.548Z,1.07
2023-05-04T06:20:39.957Z,1.11
2023-05-04T06:25:47.676Z,1.51
2023-05-04T06:30:54.976Z,1.26
2023-05-04T06:36:02.206Z,1.16
2023-05-04T06:41:09.589Z,1.18
2023-05-04T06:46:16.897Z,1.25
2023-05-04T06:51:24.170Z,1.27
2023-05-04T06:56:31.433Z,1.27
2023-05-04T07:01:38.937Z,1.14
2023-05-04T07:06:46.159Z,1.07
2023-05-04T07:11:53.538Z,1.14
2023-05-04T07:17:00.693Z,1.14
2023-05-04T07:22:08.267Z,1.19
2023-05-04T07:27:15.513Z,1.18
2023-05-04T07:32:22.909Z,1.08
2023-05-04T07:37:30.113Z,1.34
2023-05-04T07:42:37.788Z,1.01
2023-05-04T07:47:45.017Z,1.02
2023-05-04T07:52:52.325Z,0.93
2023-05-04T07:57:59.656Z,1.26
2023-05-04T08:03:07.101Z,1.01
2023-05-04T08:08:14.457Z,1.31
2023-05-04T08:13:21.909Z,1.05
2023-05-04T08:18:29.157Z,1.07
2023-05-04T08:23:36.764Z,1.13
2023-05-04T08:28:43.889Z,0.90
2023-05-04T08:33:51.266Z,1.19
2023-05-04T08:38:58.480Z,0.93
2023-05-04T08:44:05.802Z,0.96
2023-05-04T08:49:13.004Z,0.83
2023-05-04T08:54:20.277Z,0.99
2023-05-04T08:59:27.523Z,0.95
2023-05-04T09:04:34.829Z,0.98
2023-05-04T09:09:42.080Z,0.99
2023-05-04T09:14:49.440Z,0.95
2023-05-04T09:19:56.724Z,0.97
2023-05-04T09:25:04.462Z,0.91
2023-05-04T09:30:11.404Z,1.00
2023-05-04T09:35:29.268Z,1.00
2023-05-04T09:40:25.526Z,0.94
2023-05-04T09:45:33.050Z,1.11
2023-05-04T09:50:40.468Z,0.89
2023-05-04T09:55:47.967Z,1.31
2023-05-04T10:00:55.348Z,0.96
2023-05-04T10:06:02.711Z,1.06
2023-05-04T10:11:09.937Z,0.94
2023-05-04T10:16:17.882Z,0.83
2023-05-04T10:21:25.163Z,0.79
2023-05-04T10:26:32.710Z,0.79
2023-05-04T10:31:39.936Z,0.87
2023-05-04T10:36:47.313Z,0.84
2023-05-04T10:41:54.564Z,0.98
2023-05-04T10:47:02.036Z,0.78
2023-05-04T10:52:09.306Z,0.87
2023-05-04T10:57:16.633Z,0.97
2023-05-04T11:02:23.963Z,1.11
2023-05-04T11:07:31.182Z,1.09
2023-05-04T11:12:38.468Z,0.93
2023-05-04T11:17:45.937Z,0.97
2023-05-04T11:22:53.242Z,1.05
2023-05-04T11:28:00.728Z,1.04
2023-05-04T11:33:07.943Z,1.27
2023-05-04T11:38:15.322Z,1.14
2023-05-04T11:43:22.495Z,1.19
2023-05-04T11:48:29.765Z,1.07
2023-05-04T11:53:36.964Z,1.07
2023-05-04T11:58:44.267Z,1.00
2023-05-04T12:03:54.221Z,0.95
2023-05-04T12:08:58.541Z,0.99
2023-05-04T12:14:05.968Z,0.92
2023-05-04T12:19:13.415Z,0.98
2023-05-04T12:24:20.534Z,1.18
2023-05-04T12:29:27.811Z,1.10
2023-05-04T12:34:35.064Z,1.12
2023-05-04T12:39:42.555Z,1.05
2023-05-04T12:44:49.829Z,0.98
2023-05-04T12:49:57.260Z,0.86
2023-05-04T12:55:04.742Z,0.82
2023-05-04T13:00:11.977Z,1.02
2023-05-04T13:05:19.301Z,0.88
2023-05-04T13:10:26.640Z,0.98
2023-05-04T13:15:34.032Z,1.07
2023-05-04T13:20:41.284Z,0.92
2023-05-04T13:25:48.584Z,0.81
2023-05-04T13:30:56.050Z,1.03
2023-05-04T13:36:03.399Z,0.96
2023-05-04T13:41:10.904Z,1.02
2023-05-04T13:46:18.245Z,1.04
2023-05-04T13:51:25.680Z,0.82
2023-05-04T13:56:34.436Z,1.12
2023-05-04T14:01:41.836Z,0.88
2023-05-04T14:06:49.144Z,0.95
2023-05-04T14:11:56.737Z,0.95
2023-05-04T14:17:04.098Z,1.03
2023-05-04T14:22:11.489Z,0.99
2023-05-04T14:27:18.685Z,0.82
2023-05-04T14:32:26.176Z,0.79
2023-05-04T14:37:33.632Z,0.89
2023-05-04T14:42:40.976Z,0.91
2023-05-04T14:47:48.530Z,0.78
2023-05-04T14:52:56.158Z,1.05
2023-05-04T14:58:03.407Z,0.99
2023-05-04T15:03:10.935Z,0.92
2023-05-04T15:08:18.081Z,0.81
2023-05-04T15:13:25.440Z,0.85
2023-05-04T15:18:32.656Z,0.88
2023-05-04T15:23:40.168Z,1.02
2023-05-04T15:28:47.491Z,1.52
2023-05-04T15:33:55.669Z,1.06
2023-05-04T15:39:02.838Z,1.35
2023-05-04T15:44:10.195Z,1.11
2023-05-04T15:49:20.362Z,1.23
2023-05-04T15:54:17.642Z,1.03
2023-05-04T15:59:24.802Z,1.20
2023-05-04T16:04:32.251Z,1.12
2023-05-04T16:09:39.433Z,1.17
2023-05-04T16:14:47.043Z,0.91
2023-05-04T16:19:54.409Z,0.90
2023-05-04T16:25:02.038Z,1.01
2023-05-04T16:30:09.272Z,1.04
2023-05-04T16:35:15.882Z,0.98
2023-05-04T16:40:23.008Z,1.07
2023-05-04T16:45:30.358Z,1.12
2023-05-04T16:50:38.831Z,0.85
2023-05-04T16:55:46.159Z,1.28
2023-05-04T17:00:53.452Z,0.98
2023-05-04T17:06:00.952Z,1.03
2023-05-04T17:11:08.259Z,0.89
2023-05-04T17:16:15.661Z,0.95
2023-05-04T17:21:22.872Z,1.18
2023-05-04T17:26:30.247Z,1.07
2023-05-04T17:31:37.432Z,1.04
2023-05-04T17:36:44.773Z,0.94
2023-05-04T17:41:52.009Z,0.96
2023-05-04T17:46:59.357Z,1.14
2023-05-04T17:52:06.605Z,1.12
2023-05-04T17:57:14.021Z,0.86
2023-05-04T18:02:21.399Z,1.18
2023-05-04T18:07:28.704Z,1.08
2023-05-04T18:12:38.292Z,1.24
2023-05-04T18:17:43.728Z,1.18
2023-05-04T18:22:51.197Z,1.24
2023-05-04T18:27:58.623Z,1.01
2023-05-04T18:33:05.946Z,1.07
2023-05-04T18:38:13.181Z,1.11
2023-05-04T18:43:20.400Z,1.42
2023-05-04T18:48:27.736Z,1.76
2023-05-04T18:53:35.053Z,1.34
2023-05-04T18:58:42.454Z,1.46
2023-05-04T19:03:49.652Z,1.25
2023-05-04T19:08:58.036Z,1.18
2023-05-04T19:14:05.314Z,1.25
2023-05-04T19:19:12.800Z,1.39
2023-05-04T19:24:20.095Z,1.26
2023-05-04T19:29:27.496Z,1.11
2023-05-04T19:34:34.721Z,1.08
2023-05-04T19:39:42.190Z,1.32
2023-05-04T19:44:49.449Z,1.16
2023-05-04T19:50:09.966Z,1.44
2023-05-04T19:54:58.298Z,1.41
2023-05-04T20:00:05.941Z,1.25
2023-05-04T20:05:12.987Z,1.32
2023-05-04T20:10:20.318Z,1.84
2023-05-04T20:15:27.554Z,1.53
2023-05-04T20:20:35.021Z,1.33
2023-05-04T20:25:42.243Z,1.68
2023-05-04T20:30:49.533Z,1.22
2023-05-04T20:35:56.754Z,1.40
2023-05-04T20:41:06.033Z,1.52
2023-05-04T20:46:13.266Z,1.52
2023-05-04T20:51:20.576Z,1.40
2023-05-04T20:56:27.865Z,1.40
2023-05-04T21:01:35.316Z,1.42
2023-05-04T21:06:45.220Z,1.53
2023-05-04T21:11:51.561Z,1.55
2023-05-04T21:17:01.169Z,1.46
2023-05-04T21:22:08.513Z,1.57
2023-05-04T21:27:15.812Z,1.83
2023-05-04T21:32:23.198Z,1.55
2023-05-04T21:37:30.233Z,1.42
2023-05-04T21:42:37.705Z,1.48
2023-05-04T21:47:44.948Z,1.41
2023-05-04T21:52:52.250Z,1.47
2023-05-04T21:57:59.871Z,1.55
2023-05-04T22:03:07.260Z,1.64
2023-05-04T22:08:14.437Z,1.67
2023-05-04T22:13:21.677Z,1.58
2023-05-04T22:18:28.852Z,1.62
2023-05-04T22:23:36.115Z,1.67
2023-05-04T22:28:43.313Z,1.85
2023-05-04T22:33:50.617Z,1.52
2023-05-04T22:38:57.928Z,1.52
2023-05-04T22:44:05.345Z,1.68
2023-05-04T22:49:12.535Z,1.69
2023-05-04T22:54:19.812Z,1.47
2023-05-04T22:59:26.966Z,1.50
2023-05-04T23:04:34.267Z,1.56
2023-05-04T23:09:41.515Z,1.43
2023-05-04T23:14:48.773Z,1.37
2023-05-04T23:19:55.973Z,1.61
2023-05-04T23:25:03.354Z,1.48
2023-05-04T23:30:10.565Z,1.56
2023-05-04T23:35:17.736Z,1.31
2023-05-04T23:40:24.921Z,1.41
2023-05-04T23:45:32.218Z,1.69
2023-05-04T23:50:39.294Z,1.53
2023-05-04T23:55:46.592Z,1.29
